Weather Station Data

Station Data Captured at Five Minute Intervals Since Midnight Yesterday


Date Time Temp. RH % Dew Pt. Wind Speed Wind Dir. Peak Wind Wind Chill Pressure Precip. Solar W/m2 ET
6/29/17 1:15a 67.2 71 57.5 1.0 SSW 3.0 67.2 29.987 0.00 0 0.000
6/29/17 1:10a 67.3 71 57.6 1.0 SSW 2.0 67.3 29.990 0.00 0 0.000
6/29/17 1:05a 67.4 71 57.7 1.0 SSW 4.0 67.4 29.988 0.00 0 0.000
6/29/17 1:00a 67.6 71 57.9 0.0 SSW 4.0 67.6 29.986 0.00 0 0.001
6/29/17 12:55a 67.8 70 57.7 1.0 SSW 3.0 67.8 29.988 0.00 0 0.000
6/29/17 12:50a 68.0 70 57.8 0.0 S 2.0 68.0 29.988 0.00 0 0.000
6/29/17 12:45a 68.3 70 58.1 0.0 S 3.0 68.3 29.992 0.00 0 0.000
6/29/17 12:40a 68.3 69 57.7 0.0 S 1.0 68.3 29.991 0.00 0 0.000
6/29/17 12:35a 68.4 69 57.8 0.0 S 3.0 68.4 29.988 0.00 0 0.000
6/29/17 12:30a 68.4 69 57.8 1.0 SSW 3.0 68.4 29.982 0.00 0 0.000
6/29/17 12:25a 68.4 69 57.8 1.0 SSW 4.0 68.4 29.979 0.00 0 0.000
6/29/17 12:20a 68.3 69 57.7 1.0 SSW 4.0 68.3 29.981 0.00 0 0.000
6/29/17 12:15a 68.3 70 58.1 1.0 S 3.0 68.3 29.983 0.00 0 0.000
6/29/17 12:10a 68.4 70 58.2 1.0 S 2.0 68.4 29.984 0.00 0 0.000
6/29/17 12:05a 68.4 70 58.2 0.0 SSW 1.0 68.4 29.983 0.00 0 0.000
6/29/17 12:00a 68.5 70 58.3 1.0 SSW 4.0 68.5 29.988 0.00 0 0.001
6/28/17 11:55p 68.4 70 58.2 1.0 SSW 3.0 68.4 29.989 0.00 0 0.000
6/28/17 11:50p 68.4 70 58.2 0.0 S 3.0 68.4 29.985 0.00 0 0.000
6/28/17 11:45p 68.4 70 58.2 0.0 S 2.0 68.4 29.987 0.00 0 0.000
6/28/17 11:40p 68.5 70 58.3 0.0 S 2.0 68.5 29.980 0.00 0 0.000
6/28/17 11:35p 68.6 70 58.4 0.0 S 1.0 68.6 29.980 0.00 0 0.000
6/28/17 11:30p 68.9 69 58.3 0.0 --- 0.0 68.9 29.979 0.00 0 0.000
6/28/17 11:25p 69.0 69 58.4 0.0 --- 0.0 69.0 29.982 0.00 0 0.000
6/28/17 11:20p 69.1 69 58.5 0.0 S 2.0 69.1 29.977 0.00 0 0.000
6/28/17 11:15p 69.3 68 58.3 0.0 S 2.0 69.3 29.976 0.00 0 0.000
6/28/17 11:10p 69.5 68 58.5 0.0 S 1.0 69.5 29.979 0.00 0 0.000
6/28/17 11:05p 69.7 67 58.3 0.0 S 1.0 69.7 29.978 0.00 0 0.000
6/28/17 11:00p 69.9 67 58.4 1.0 S 3.0 69.9 29.973 0.00 0 0.002
6/28/17 10:55p 70.1 67 58.6 0.0 S 1.0 70.1 29.971 0.00 0 0.000
6/28/17 10:50p 70.3 66 58.4 1.0 SSW 3.0 70.3 29.976 0.00 0 0.000
6/28/17 10:45p 70.4 66 58.5 1.0 S 4.0 70.4 29.977 0.00 0 0.000
6/28/17 10:40p 70.4 66 58.5 2.0 SSW 5.0 70.4 29.973 0.00 0 0.000
6/28/17 10:35p 70.4 66 58.5 1.0 SSW 4.0 70.4 29.967 0.00 0 0.000
6/28/17 10:30p 70.5 66 58.6 2.0 SSW 5.0 70.5 29.967 0.00 0 0.000
6/28/17 10:25p 70.7 66 58.8 2.0 SSW 5.0 70.7 29.965 0.00 0 0.000
6/28/17 10:20p 70.8 66 58.9 1.0 S 4.0 70.8 29.963 0.00 0 0.000
6/28/17 10:15p 71.0 65 58.6 2.0 SSE 4.0 71.0 29.959 0.00 0 0.000
6/28/17 10:10p 71.2 64 58.4 1.0 SSE 6.0 71.2 29.964 0.00 0 0.000
6/28/17 10:05p 71.4 64 58.6 2.0 S 7.0 71.4 29.964 0.00 0 0.000
6/28/17 10:00p 71.7 63 58.4 2.0 SSW 5.0 71.7 29.960 0.00 0 0.001
6/28/17 9:55p 71.9 63 58.6 1.0 SSW 4.0 71.9 29.954 0.00 0 0.000
6/28/17 9:50p 72.0 62 58.3 2.0 SSW 6.0 72.0 29.946 0.00 0 0.000
6/28/17 9:45p 72.1 62 58.4 1.0 SSW 4.0 72.1 29.945 0.00 0 0.000
6/28/17 9:40p 72.1 62 58.4 2.0 SSW 4.0 72.1 29.944 0.00 0 0.000
6/28/17 9:35p 72.1 62 58.4 1.0 SSW 4.0 72.1 29.944 0.00 0 0.000
6/28/17 9:30p 72.1 62 58.4 1.0 S 3.0 72.1 29.949 0.00 0 0.000
6/28/17 9:25p 72.2 62 58.5 1.0 SSW 5.0 72.2 29.953 0.00 0 0.000
6/28/17 9:20p 72.3 62 58.5 1.0 SSW 4.0 72.3 29.954 0.00 0 0.000
6/28/17 9:15p 72.6 61 58.4 1.0 SSW 3.0 72.6 29.953 0.00 0 0.000
6/28/17 9:10p 72.9 61 58.7 0.0 SSW 1.0 72.9 29.955 0.00 0 0.000
6/28/17 9:05p 73.2 59 58.0 1.0 SSW 5.0 73.2 29.959 0.00 4 0.000
6/28/17 9:00p 73.5 60 58.8 0.0 SSW 3.0 73.5 29.963 0.00 11 0.002
6/28/17 8:55p 73.9 59 58.7 0.0 --- 0.0 73.9 29.968 0.00 16 0.000
6/28/17 8:50p 74.2 58 58.5 0.0 SSW 3.0 74.2 29.967 0.00 18 0.000
6/28/17 8:45p 74.4 57 58.2 0.0 SSW 3.0 74.4 29.968 0.00 24 0.000
6/28/17 8:40p 74.6 57 58.4 1.0 S 4.0 74.6 29.971 0.00 31 0.000
6/28/17 8:35p 74.7 57 58.5 1.0 SSW 4.0 74.7 29.970 0.00 36 0.000
6/28/17 8:30p 74.9 57 58.6 0.0 S 2.0 74.9 29.974 0.00 45 0.000
6/28/17 8:25p 75.1 56 58.3 0.0 S 2.0 75.1 29.977 0.00 51 0.000
6/28/17 8:20p 75.3 55 58.0 2.0 SSW 6.0 75.3 29.978 0.00 52 0.000
6/28/17 8:15p 75.5 55 58.2 1.0 S 3.0 75.5 29.976 0.00 61 0.000
6/28/17 8:10p 75.6 53 57.3 2.0 SSW 5.0 75.6 29.978 0.00 69 0.000
6/28/17 8:05p 75.7 54 57.9 2.0 SSW 8.0 75.7 29.977 0.00 75 0.000
6/28/17 8:00p 75.8 55 58.5 2.0 S 7.0 75.8 29.976 0.00 79 0.005
6/28/17 7:55p 75.9 54 58.1 2.0 S 5.0 75.9 29.977 0.00 84 0.000
6/28/17 7:50p 76.0 54 58.2 2.0 S 6.0 76.0 29.980 0.00 86 0.000
6/28/17 7:45p 76.1 54 58.2 1.0 SSW 3.0 76.1 29.978 0.00 82 0.000
6/28/17 7:40p 76.2 54 58.3 2.0 SSW 9.0 76.2 29.977 0.00 80 0.000
6/28/17 7:35p 76.3 53 57.9 3.0 SSW 11.0 76.3 29.976 0.00 102 0.000
6/28/17 7:30p 76.5 54 58.6 2.0 SSW 6.0 76.5 29.975 0.00 121 0.000
6/28/17 7:25p 76.7 53 58.3 3.0 S 6.0 76.7 29.975 0.00 173 0.000
6/28/17 7:20p 76.7 54 58.8 2.0 S 6.0 76.7 29.974 0.00 211 0.000
6/28/17 7:15p 76.8 52 57.8 3.0 S 8.0 76.8 29.975 0.00 187 0.000
6/28/17 7:10p 77.1 51 57.6 4.0 SSW 6.0 77.1 29.980 0.00 189 0.000
6/28/17 7:05p 77.4 51 57.9 3.0 S 7.0 77.4 29.980 0.00 156 0.000
6/28/17 7:00p 77.8 53 59.3 3.0 SSW 8.0 77.8 29.978 0.00 201 0.010
6/28/17 6:55p 78.0 50 57.9 3.0 S 6.0 78.0 29.978 0.00 286 0.000
6/28/17 6:50p 78.0 52 58.9 2.0 SSE 8.0 78.0 29.978 0.00 349 0.000
6/28/17 6:45p 77.9 51 58.3 4.0 SSW 11.0 77.9 29.976 0.00 368 0.000
6/28/17 6:40p 77.9 50 57.8 4.0 SSW 10.0 77.9 29.979 0.00 359 0.000
6/28/17 6:35p 78.0 49 57.3 4.0 SSW 10.0 78.0 29.983 0.00 371 0.000
6/28/17 6:30p 78.0 50 57.9 3.0 S 10.0 78.0 29.979 0.00 396 0.000
6/28/17 6:25p 77.9 50 57.8 3.0 SSW 7.0 77.9 29.984 0.00 400 0.000
6/28/17 6:20p 77.8 50 57.7 2.0 S 6.0 77.8 29.987 0.00 345 0.000
6/28/17 6:15p 77.9 51 58.3 3.0 S 6.0 77.9 29.991 0.00 323 0.000
6/28/17 6:10p 78.0 50 57.9 4.0 SSW 9.0 78.0 29.996 0.00 376 0.000
6/28/17 6:05p 78.0 53 59.5 3.0 S 7.0 78.0 29.996 0.00 414 0.000
6/28/17 6:00p 78.0 49 57.3 3.0 SSW 8.0 78.0 29.996 0.00 300 0.012
6/28/17 5:55p 78.4 50 58.2 3.0 S 8.0 78.4 29.993 0.00 276 0.000
6/28/17 5:50p 78.9 51 59.2 3.0 SSW 8.0 78.9 29.993 0.00 459 0.000
6/28/17 5:45p 79.1 48 57.7 2.0 S 8.0 79.1 29.999 0.00 574 0.000
6/28/17 5:40p 78.6 51 59.0 2.0 S 5.0 78.6 30.001 0.00 622 0.000
6/28/17 5:35p 78.0 50 57.9 3.0 S 7.0 78.0 30.006 0.00 653 0.000
6/28/17 5:30p 77.5 50 57.4 3.0 SSW 7.0 77.5 30.008 0.00 610 0.000
6/28/17 5:25p 77.1 49 56.5 3.0 SSW 8.0 77.1 30.010 0.00 383 0.000
6/28/17 5:20p 77.4 50 57.3 3.0 S 8.0 77.4 30.011 0.00 280 0.000
6/28/17 5:15p 77.8 48 56.5 3.0 S 8.0 77.8 30.015 0.00 264 0.000
6/28/17 5:10p 78.6 51 59.0 2.0 SSW 6.0 78.6 30.015 0.00 273 0.000
6/28/17 5:05p 79.0 48 57.6 2.0 SSW 5.0 79.0 30.016 0.00 476 0.000
6/28/17 5:00p 78.9 51 59.2 2.0 S 4.0 78.9 30.017 0.00 727 0.017
6/28/17 4:55p 78.5 51 58.9 2.0 SSW 6.0 78.5 30.018 0.00 325 0.000
6/28/17 4:50p 78.3 47 56.4 3.0 S 6.0 78.3 30.020 0.00 722 0.000
6/28/17 4:45p 78.2 47 56.3 2.0 SSW 5.0 78.2 30.020 0.00 701 0.000
6/28/17 4:40p 78.0 48 56.7 3.0 S 7.0 78.0 30.023 0.00 597 0.000
6/28/17 4:35p 78.2 47 56.3 2.0 SSW 4.0 78.2 30.026 0.00 380 0.000
6/28/17 4:30p 78.5 52 59.4 2.0 SSW 5.0 78.5 30.028 0.00 502 0.000
6/28/17 4:25p 78.5 48 57.2 2.0 S 8.0 78.5 30.027 0.00 664 0.000
6/28/17 4:20p 78.5 49 57.7 2.0 S 6.0 78.5 30.028 0.00 655 0.000
6/28/17 4:15p 78.7 50 58.5 2.0 SSW 8.0 78.7 30.029 0.00 718 0.000
6/28/17 4:10p 78.3 53 59.8 2.0 SSW 6.0 78.3 30.030 0.00 742 0.000
6/28/17 4:05p 78.2 52 59.1 4.0 S 11.0 78.2 30.032 0.00 756 0.000
6/28/17 4:00p 78.4 51 58.8 3.0 S 10.0 78.4 30.037 0.00 765 0.022
6/28/17 3:55p 78.2 48 56.9 2.0 SSW 5.0 78.2 30.037 0.00 790 0.000
6/28/17 3:50p 78.1 49 57.4 4.0 S 12.0 78.1 30.038 0.00 786 0.000
6/28/17 3:45p 78.4 49 57.7 4.0 SSW 8.0 78.4 30.038 0.00 801 0.000
6/28/17 3:40p 78.6 51 59.0 3.0 SSW 6.0 78.6 30.044 0.00 816 0.000
6/28/17 3:35p 78.6 50 58.4 2.0 SSE 7.0 78.6 30.041 0.00 817 0.000
6/28/17 3:30p 78.1 50 57.9 3.0 SSW 8.0 78.1 30.045 0.00 848 0.000
6/28/17 3:25p 78.3 51 58.7 3.0 S 9.0 78.3 30.048 0.00 846 0.000
6/28/17 3:20p 78.2 49 57.5 3.0 SSW 7.0 78.2 30.050 0.00 824 0.000
6/28/17 3:15p 78.6 48 57.3 2.0 S 7.0 78.6 30.052 0.00 852 0.000
6/28/17 3:10p 78.5 52 59.4 2.0 S 6.0 78.5 30.053 0.00 858 0.000
6/28/17 3:05p 78.1 53 59.6 2.0 SSW 7.0 78.1 30.055 0.00 861 0.000
6/28/17 3:00p 77.9 55 60.4 2.0 SSE 5.0 77.9 30.061 0.00 862 0.023
6/28/17 2:55p 77.7 53 59.2 3.0 S 7.0 77.7 30.060 0.00 874 0.000
6/28/17 2:50p 78.1 51 58.5 3.0 S 10.0 78.1 30.062 0.00 877 0.000
6/28/17 2:45p 78.0 51 58.4 2.0 SSW 5.0 78.0 30.064 0.00 877 0.000
6/28/17 2:40p 77.4 56 60.5 1.0 S 5.0 77.4 30.064 0.00 882 0.000
6/28/17 2:35p 77.0 50 56.9 6.0 S 11.0 77.0 30.068 0.00 888 0.000
6/28/17 2:30p 77.7 54 59.7 3.0 S 6.0 77.7 30.069 0.00 890 0.000
6/28/17 2:25p 77.4 52 58.4 1.0 SSE 5.0 77.4 30.072 0.00 894 0.000
6/28/17 2:20p 76.9 53 58.5 2.0 S 5.0 76.9 30.076 0.00 898 0.000
6/28/17 2:15p 76.7 49 56.1 4.0 S 9.0 76.7 30.082 0.00 902 0.000
6/28/17 2:10p 77.0 51 57.5 2.0 SSE 6.0 77.0 30.086 0.00 904 0.000
6/28/17 2:05p 76.9 51 57.4 2.0 SSW 6.0 76.9 30.088 0.00 904 0.000
6/28/17 2:00p 76.9 52 57.9 3.0 SSW 7.0 76.9 30.091 0.00 906 0.023
6/28/17 1:55p 76.9 49 56.3 2.0 SSE 5.0 76.9 30.090 0.00 909 0.000
6/28/17 1:50p 76.4 49 55.8 2.0 S 6.0 76.4 30.092 0.00 871 0.000
6/28/17 1:45p 76.2 52 57.3 3.0 SSW 7.0 76.2 30.094 0.00 943 0.000
6/28/17 1:40p 76.2 55 58.9 3.0 SSW 7.0 76.2 30.095 0.00 943 0.000
6/28/17 1:35p 76.1 50 56.1 4.0 SSW 10.0 76.1 30.096 0.00 941 0.000
6/28/17 1:30p 75.9 53 57.5 3.0 SSW 7.0 75.9 30.095 0.00 907 0.000
6/28/17 1:25p 75.6 55 58.3 3.0 SSW 7.0 75.6 30.096 0.00 876 0.000
6/28/17 1:20p 75.3 56 58.5 4.0 SSW 12.0 75.3 30.094 0.00 900 0.000
6/28/17 1:15p 75.0 56 58.2 4.0 S 9.0 75.0 30.094 0.00 832 0.000
6/28/17 1:10p 75.2 52 56.4 3.0 S 8.0 75.2 30.097 0.00 624 0.000
6/28/17 1:05p 75.4 55 58.1 3.0 SSW 9.0 75.4 30.101 0.00 826 0.000
6/28/17 1:00p 75.2 52 56.4 5.0 S 11.0 75.2 30.102 0.00 888 0.021
6/28/17 12:55p 75.3 54 57.5 3.0 SSW 7.0 75.3 30.104 0.00 926 0.000
6/28/17 12:50p 75.1 52 56.3 2.0 S 6.0 75.1 30.109 0.00 934 0.000
6/28/17 12:45p 74.7 52 55.9 4.0 SSW 9.0 74.7 30.107 0.00 839 0.000
6/28/17 12:40p 74.5 58 58.8 3.0 S 8.0 74.5 30.107 0.00 825 0.000
6/28/17 12:35p 74.5 53 56.2 5.0 SSW 11.0 74.5 30.108 0.00 793 0.000
6/28/17 12:30p 74.9 55 57.6 4.0 S 8.0 74.9 30.111 0.00 861 0.000
6/28/17 12:25p 75.0 54 57.2 3.0 S 7.0 75.0 30.111 0.00 869 0.000
6/28/17 12:20p 74.7 55 57.5 2.0 S 4.0 74.7 30.110 0.00 835 0.000
6/28/17 12:15p 74.2 52 55.4 3.0 SE 10.0 74.2 30.111 0.00 808 0.000
6/28/17 12:10p 73.9 54 56.2 4.0 S 8.0 73.9 30.110 0.00 824 0.000
6/28/17 12:05p 73.8 53 55.6 3.0 S 10.0 73.8 30.113 0.00 802 0.000
6/28/17 12:00p 73.7 53 55.5 4.0 S 10.0 73.7 30.111 0.00 794 0.018
6/28/17 11:55a 73.3 59 58.1 2.0 S 7.0 73.3 30.113 0.00 787 0.000
6/28/17 11:50a 72.8 56 56.2 4.0 SSW 11.0 72.8 30.114 0.00 745 0.000
6/28/17 11:45a 72.6 53 54.5 5.0 S 9.0 72.6 30.114 0.00 741 0.000
6/28/17 11:40a 72.5 56 55.9 5.0 S 9.0 72.5 30.112 0.00 726 0.000
6/28/17 11:35a 72.5 56 55.9 5.0 S 8.0 72.5 30.113 0.00 693 0.000
6/28/17 11:30a 72.5 58 56.9 4.0 S 9.0 72.5 30.113 0.00 681 0.000
6/28/17 11:25a 72.6 56 56.0 4.0 SSW 12.0 72.6 30.115 0.00 670 0.000
6/28/17 11:20a 72.4 60 57.7 2.0 SSW 5.0 72.4 30.114 0.00 695 0.000
6/28/17 11:15a 71.9 62 58.2 3.0 S 8.0 71.9 30.115 0.00 701 0.000
6/28/17 11:10a 71.6 58 56.0 4.0 SSW 8.0 71.6 30.120 0.00 667 0.000
6/28/17 11:05a 71.4 58 55.9 4.0 S 9.0 71.4 30.121 0.00 631 0.000
6/28/17 11:00a 71.2 61 57.1 3.0 S 7.0 71.2 30.122 0.00 658 0.006
6/28/17 10:55a 71.1 62 57.4 3.0 S 6.0 71.1 30.118 0.00 634 0.000
6/28/17 10:50a 70.7 64 57.9 1.0 S 4.0 70.7 30.119 0.00 137 0.000
6/28/17 10:45a 70.3 61 56.2 2.0 SSW 6.0 70.3 30.121 0.00 95 0.000
6/28/17 10:40a 70.1 60 55.6 5.0 S 9.0 70.1 30.121 0.00 102 0.000
6/28/17 10:35a 70.0 62 56.4 2.0 S 6.0 70.0 30.122 0.00 101 0.000
6/28/17 10:30a 69.7 63 56.5 2.0 SSW 6.0 69.7 30.122 0.00 102 0.000
6/28/17 10:25a 69.4 61 55.4 3.0 SSW 8.0 69.4 30.118 0.00 90 0.000
6/28/17 10:20a 69.3 63 56.2 3.0 S 6.0 69.3 30.118 0.00 98 0.000
6/28/17 10:15a 69.0 65 56.7 2.0 SSW 5.0 69.0 30.122 0.00 96 0.000
6/28/17 10:10a 68.7 64 56.0 3.0 SSW 8.0 68.7 30.120 0.00 109 0.000
6/28/17 10:05a 68.5 67 57.1 1.0 S 5.0 68.5 30.120 0.00 118 0.000
6/28/17 10:00a 68.2 65 56.0 3.0 SSW 7.0 68.2 30.119 0.00 125 0.004
6/28/17 9:55a 67.7 68 56.8 2.0 SSE 5.0 67.7 30.117 0.00 95 0.000
6/28/17 9:50a 67.4 68 56.5 4.0 SSW 10.0 67.4 30.119 0.00 175 0.000
6/28/17 9:45a 67.0 66 55.3 5.0 SSW 11.0 67.0 30.120 0.00 200 0.000
6/28/17 9:40a 66.7 67 55.4 5.0 SSW 9.0 66.7 30.120 0.00 105 0.000
6/28/17 9:35a 66.4 68 55.5 4.0 S 9.0 66.4 30.116 0.00 140 0.000
6/28/17 9:30a 66.3 67 55.0 4.0 SSW 11.0 66.3 30.115 0.00 146 0.000
6/28/17 9:25a 66.2 67 54.9 3.0 SSW 7.0 66.2 30.115 0.00 80 0.000
6/28/17 9:20a 66.0 68 55.1 2.0 SSW 6.0 66.0 30.115 0.00 104 0.000
6/28/17 9:15a 65.8 69 55.3 4.0 SSW 9.0 65.8 30.114 0.00 136 0.000
6/28/17 9:10a 65.7 71 56.0 1.0 SSW 6.0 65.7 30.113 0.00 225 0.000
6/28/17 9:05a 65.3 69 54.9 1.0 SE 2.0 65.3 30.115 0.00 141 0.000
6/28/17 9:00a 64.8 70 54.8 1.0 S 4.0 64.8 30.115 0.00 355 0.003
6/28/17 8:55a 64.5 69 54.1 3.0 S 10.0 64.5 30.118 0.00 223 0.000
6/28/17 8:50a 64.3 69 53.9 3.0 SSW 8.0 64.3 30.122 0.00 87 0.000
6/28/17 8:45a 64.0 69 53.6 2.0 S 7.0 64.0 30.121 0.00 64 0.000
6/28/17 8:40a 63.8 70 53.8 2.0 S 6.0 63.8 30.122 0.00 95 0.000
6/28/17 8:35a 63.6 72 54.4 1.0 SSW 6.0 63.6 30.121 0.00 45 0.000
6/28/17 8:30a 63.4 70 53.4 2.0 S 5.0 63.4 30.119 0.00 41 0.000
6/28/17 8:25a 63.1 70 53.2 2.0 S 4.0 63.1 30.121 0.00 53 0.000
6/28/17 8:20a 62.9 72 53.7 1.0 SSW 7.0 62.9 30.112 0.00 72 0.000
6/28/17 8:15a 62.6 73 53.8 0.0 S 2.0 62.6 30.112 0.00 73 0.000
6/28/17 8:10a 62.4 73 53.6 1.0 SSW 2.0 62.4 30.112 0.00 83 0.000
6/28/17 8:05a 62.1 72 53.0 0.0 SSW 2.0 62.1 30.107 0.00 59 0.000
6/28/17 8:00a 61.6 74 53.2 1.0 SSW 5.0 61.6 30.107 0.00 140 0.001
6/28/17 7:55a 61.2 76 53.6 0.0 SSW 2.0 61.2 30.107 0.00 135 0.000
6/28/17 7:50a 60.8 76 53.2 0.0 SSW 1.0 60.8 30.106 0.00 43 0.000
6/28/17 7:45a 60.5 77 53.3 0.0 SSW 1.0 60.5 30.108 0.00 39 0.000
6/28/17 7:40a 60.1 77 52.9 0.0 --- 0.0 60.1 30.105 0.00 38 0.000
6/28/17 7:35a 59.8 77 52.6 0.0 --- 0.0 59.8 30.106 0.00 29 0.000
6/28/17 7:30a 59.6 77 52.4 0.0 --- 0.0 59.6 30.101 0.00 27 0.000
6/28/17 7:25a 59.4 77 52.2 0.0 SSW 2.0 59.4 30.098 0.00 25 0.000
6/28/17 7:20a 59.4 77 52.2 0.0 --- 0.0 59.4 30.097 0.00 24 0.000
6/28/17 7:15a 59.3 78 52.4 0.0 --- 0.0 59.3 30.094 0.00 21 0.000
6/28/17 7:10a 59.1 77 51.9 0.0 --- 0.0 59.1 30.099 0.00 20 0.000
6/28/17 7:05a 58.9 77 51.7 0.0 --- 0.0 58.9 30.097 0.00 19 0.000
6/28/17 7:00a 58.6 77 51.4 0.0 --- 0.0 58.6 30.101 0.00 17 0.000
6/28/17 6:55a 58.3 77 51.1 0.0 SSW 2.0 58.3 30.104 0.00 15 0.000
6/28/17 6:50a 58.2 77 51.0 0.0 WSW 2.0 58.2 30.092 0.00 13 0.000
6/28/17 6:45a 57.8 78 51.0 1.0 WSW 2.0 57.8 30.093 0.00 12 0.000
6/28/17 6:40a 57.5 79 51.0 0.0 --- 0.0 57.5 30.085 0.00 10 0.000
6/28/17 6:35a 57.4 79 50.9 0.0 --- 0.0 57.4 30.076 0.00 8 0.000
6/28/17 6:30a 57.5 79 51.0 0.0 --- 0.0 57.5 30.073 0.00 6 0.000
6/28/17 6:25a 57.5 79 51.0 0.0 --- 0.0 57.5 30.075 0.00 2 0.000
6/28/17 6:20a 57.5 79 51.0 0.0 --- 0.0 57.5 30.070 0.00 0 0.000
6/28/17 6:15a 57.6 79 51.1 0.0 --- 0.0 57.6 30.066 0.00 0 0.000
6/28/17 6:10a 57.6 79 51.1 0.0 --- 0.0 57.6 30.065 0.00 0 0.000
6/28/17 6:05a 57.5 79 51.0 0.0 --- 0.0 57.5 30.063 0.00 0 0.000
6/28/17 6:00a 57.4 79 50.9 0.0 --- 0.0 57.4 30.063 0.00 0 0.001
6/28/17 5:55a 57.3 79 50.8 0.0 --- 0.0 57.3 30.061 0.00 0 0.000
6/28/17 5:50a 57.1 80 51.0 0.0 --- 0.0 57.1 30.062 0.00 0 0.000
6/28/17 5:45a 56.8 81 51.0 0.0 --- 0.0 56.8 30.063 0.00 0 0.000
6/28/17 5:40a 56.7 81 50.9 0.0 WSW 1.0 56.7 30.063 0.00 0 0.000
6/28/17 5:35a 56.5 82 51.1 0.0 --- 0.0 56.5 30.066 0.00 0 0.000
6/28/17 5:30a 56.3 82 50.9 0.0 --- 0.0 56.3 30.067 0.00 0 0.000
6/28/17 5:25a 56.2 82 50.8 0.0 --- 0.0 56.2 30.067 0.00 0 0.000
6/28/17 5:20a 56.1 82 50.7 0.0 --- 0.0 56.1 30.073 0.00 0 0.000
6/28/17 5:15a 56.2 83 51.1 0.0 --- 0.0 56.2 30.078 0.00 0 0.000
6/28/17 5:10a 56.3 84 51.5 0.0 --- 0.0 56.3 30.081 0.00 0 0.000
6/28/17 5:05a 56.5 84 51.7 0.0 --- 0.0 56.5 30.082 0.00 0 0.000
6/28/17 5:00a 56.5 84 51.7 0.0 --- 0.0 56.5 30.082 0.00 0 0.001
6/28/17 4:55a 56.5 83 51.4 0.0 --- 0.0 56.5 30.080 0.00 0 0.000
6/28/17 4:50a 56.6 83 51.5 0.0 --- 0.0 56.6 30.082 0.00 0 0.000
6/28/17 4:45a 56.8 83 51.7 0.0 --- 0.0 56.8 30.083 0.00 0 0.000
6/28/17 4:40a 56.9 83 51.8 0.0 --- 0.0 56.9 30.087 0.00 0 0.000
6/28/17 4:35a 57.1 82 51.7 0.0 --- 0.0 57.1 30.087 0.00 0 0.000
6/28/17 4:30a 57.1 82 51.7 0.0 --- 0.0 57.1 30.085 0.00 0 0.000
6/28/17 4:25a 57.0 82 51.6 0.0 --- 0.0 57.0 30.082 0.00 0 0.000
6/28/17 4:20a 57.1 82 51.7 0.0 --- 0.0 57.1 30.079 0.00 0 0.000
6/28/17 4:15a 57.3 82 51.9 0.0 --- 0.0 57.3 30.079 0.00 0 0.000
6/28/17 4:10a 57.4 81 51.6 0.0 --- 0.0 57.4 30.080 0.00 0 0.000
6/28/17 4:05a 57.6 81 51.8 0.0 --- 0.0 57.6 30.081 0.00 0 0.000
6/28/17 4:00a 57.7 80 51.6 0.0 --- 0.0 57.7 30.079 0.00 0 0.001
6/28/17 3:55a 57.8 79 51.3 0.0 --- 0.0 57.8 30.082 0.00 0 0.000
6/28/17 3:50a 57.9 80 51.8 0.0 --- 0.0 57.9 30.084 0.00 0 0.000
6/28/17 3:45a 58.1 80 52.0 0.0 --- 0.0 58.1 30.085 0.00 0 0.000
6/28/17 3:40a 58.2 80 52.1 0.0 --- 0.0 58.2 30.084 0.00 0 0.000
6/28/17 3:35a 58.3 78 51.5 0.0 --- 0.0 58.3 30.086 0.00 0 0.000
6/28/17 3:30a 58.4 79 51.9 0.0 --- 0.0 58.4 30.089 0.00 0 0.000
6/28/17 3:25a 58.4 79 51.9 0.0 --- 0.0 58.4 30.089 0.00 0 0.000
6/28/17 3:20a 58.4 78 51.6 0.0 --- 0.0 58.4 30.088 0.00 0 0.000
6/28/17 3:15a 58.5 77 51.3 0.0 --- 0.0 58.5 30.087 0.00 0 0.000
6/28/17 3:10a 58.6 77 51.4 0.0 --- 0.0 58.6 30.087 0.00 0 0.000
6/28/17 3:05a 58.5 77 51.3 0.0 --- 0.0 58.5 30.086 0.00 0 0.000
6/28/17 3:00a 58.4 76 50.9 0.0 --- 0.0 58.4 30.084 0.00 0 0.001
6/28/17 2:55a 58.2 76 50.7 0.0 --- 0.0 58.2 30.083 0.00 0 0.000
6/28/17 2:50a 58.0 77 50.8 0.0 --- 0.0 58.0 30.083 0.00 0 0.000
6/28/17 2:45a 57.9 77 50.7 0.0 --- 0.0 57.9 30.085 0.00 0 0.000
6/28/17 2:40a 57.8 77 50.6 0.0 --- 0.0 57.8 30.085 0.00 0 0.000
6/28/17 2:35a 57.8 78 51.0 0.0 --- 0.0 57.8 30.087 0.00 0 0.000
6/28/17 2:30a 57.8 77 50.6 0.0 --- 0.0 57.8 30.089 0.00 0 0.000
6/28/17 2:25a 57.8 77 50.6 0.0 --- 0.0 57.8 30.087 0.00 0 0.000
6/28/17 2:20a 57.7 75 49.8 0.0 --- 0.0 57.7 30.087 0.00 0 0.000
6/28/17 2:15a 57.8 76 50.3 0.0 --- 0.0 57.8 30.087 0.00 0 0.000
6/28/17 2:10a 57.8 78 51.0 0.0 --- 0.0 57.8 30.087 0.00 0 0.000
6/28/17 2:05a 57.8 78 51.0 0.0 --- 0.0 57.8 30.087 0.00 0 0.000
6/28/17 2:00a 58.0 78 51.2 0.0 --- 0.0 58.0 30.087 0.00 0 0.001
6/28/17 1:55a 58.1 78 51.3 0.0 --- 0.0 58.1 30.086 0.00 0 0.000
6/28/17 1:50a 58.1 78 51.3 0.0 --- 0.0 58.1 30.085 0.00 0 0.000
6/28/17 1:45a 58.2 80 52.1 0.0 --- 0.0 58.2 30.085 0.00 0 0.000
6/28/17 1:40a 58.3 81 52.5 0.0 --- 0.0 58.3 30.087 0.00 0 0.000
6/28/17 1:35a 58.4 81 52.6 0.0 --- 0.0 58.4 30.088 0.00 0 0.000
6/28/17 1:30a 58.4 80 52.3 0.0 --- 0.0 58.4 30.090 0.00 0 0.000
6/28/17 1:25a 58.6 80 52.4 0.0 --- 0.0 58.6 30.087 0.00 0 0.000
6/28/17 1:20a 58.7 80 52.5 0.0 --- 0.0 58.7 30.088 0.00 0 0.000
6/28/17 1:15a 58.8 81 53.0 0.0 --- 0.0 58.8 30.088 0.00 0 0.000
6/28/17 1:10a 58.9 80 52.7 0.0 --- 0.0 58.9 30.088 0.00 0 0.000
6/28/17 1:05a 58.8 80 52.6 0.0 --- 0.0 58.8 30.087 0.00 0 0.000
6/28/17 1:00a 58.8 81 53.0 0.0 --- 0.0 58.8 30.086 0.00 0 0.001
6/28/17 12:55a 58.9 79 52.4 0.0 --- 0.0 58.9 30.087 0.00 0 0.000
6/28/17 12:50a 59.0 79 52.5 0.0 --- 0.0 59.0 30.088 0.00 0 0.000
6/28/17 12:45a 59.1 79 52.6 0.0 --- 0.0 59.1 30.087 0.00 0 0.000
6/28/17 12:40a 59.4 80 53.2 0.0 --- 0.0 59.4 30.087 0.00 0 0.000
6/28/17 12:35a 59.7 80 53.5 0.0 --- 0.0 59.7 30.085 0.00 0 0.000
6/28/17 12:30a 59.9 80 53.7 0.0 --- 0.0 59.9 30.083 0.00 0 0.000
6/28/17 12:25a 59.8 79 53.3 0.0 --- 0.0 59.8 30.085 0.00 0 0.000
6/28/17 12:20a 59.7 78 52.8 0.0 --- 0.0 59.7 30.082 0.00 0 0.000
6/28/17 12:15a 59.5 78 52.6 0.0 --- 0.0 59.5 30.084 0.00 0 0.000
6/28/17 12:10a 59.4 77 52.2 0.0 --- 0.0 59.4 30.083 0.00 0 0.000
6/28/17 12:05a 59.3 76 51.7 0.0 --- 0.0 59.3 30.082 0.00 0 0.000

11,489 Page Views